sensor_id;sensor_type;location;lat;lon;timestamp;pressure;altitude;pressure_sealevel;temperature
62845;BMP280;48929;47.910;20.390;2023-04-01T00:02:01;97862.41;;;9.76
62845;BMP280;48929;47.910;20.390;2023-04-01T00:04:30;97863.31;;;9.72
62845;BMP280;48929;47.910;20.390;2023-04-01T00:07:01;97864.97;;;9.68
62845;BMP280;48929;47.910;20.390;2023-04-01T00:09:29;97864.66;;;9.61
62845;BMP280;48929;47.910;20.390;2023-04-01T00:11:58;97867.41;;;9.55
62845;BMP280;48929;47.910;20.390;2023-04-01T00:14:27;97862.97;;;9.47
62845;BMP280;48929;47.910;20.390;2023-04-01T00:16:56;97871.44;;;9.39
62845;BMP280;48929;47.910;20.390;2023-04-01T00:19:25;97866.75;;;9.33
62845;BMP280;48929;47.910;20.390;2023-04-01T00:22:06;97864.63;;;9.26
62845;BMP280;48929;47.910;20.390;2023-04-01T00:24:38;97869.00;;;9.17
62845;BMP280;48929;47.910;20.390;2023-04-01T00:27:06;97874.53;;;9.10
62845;BMP280;48929;47.910;20.390;2023-04-01T00:29:35;97874.84;;;9.09
62845;BMP280;48929;47.910;20.390;2023-04-01T00:32:04;97881.38;;;9.06
62845;BMP280;48929;47.910;20.390;2023-04-01T00:34:35;97878.03;;;9.06
62845;BMP280;48929;47.910;20.390;2023-04-01T00:37:06;97876.53;;;9.05
62845;BMP280;48929;47.910;20.390;2023-04-01T00:39:35;97871.84;;;9.07
62845;BMP280;48929;47.910;20.390;2023-04-01T00:42:04;97873.06;;;9.09
62845;BMP280;48929;47.910;20.390;2023-04-01T00:44:33;97873.06;;;9.09
62845;BMP280;48929;47.910;20.390;2023-04-01T00:47:02;97874.13;;;9.08
62845;BMP280;48929;47.910;20.390;2023-04-01T00:49:34;97874.72;;;9.05
62845;BMP280;48929;47.910;20.390;2023-04-01T00:52:08;97872.28;;;9.00
62845;BMP280;48929;47.910;20.390;2023-04-01T00:54:38;97876.78;;;8.95
62845;BMP280;48929;47.910;20.390;2023-04-01T00:57:13;97881.59;;;8.88
62845;BMP280;48929;47.910;20.390;2023-04-01T00:59:46;97886.53;;;8.84
62845;BMP280;48929;47.910;20.390;2023-04-01T01:02:16;97879.13;;;8.74
62845;BMP280;48929;47.910;20.390;2023-04-01T01:04:45;97883.16;;;8.66
62845;BMP280;48929;47.910;20.390;2023-04-01T01:07:44;97874.97;;;8.56
62845;BMP280;48929;47.910;20.390;2023-04-01T01:10:17;97885.47;;;8.46
62845;BMP280;48929;47.910;20.390;2023-04-01T01:12:52;97882.09;;;8.36
62845;BMP280;48929;47.910;20.390;2023-04-01T01:15:25;97885.84;;;8.30
62845;BMP280;48929;47.910;20.390;2023-04-01T01:17:58;97881.75;;;8.29
62845;BMP280;48929;47.910;20.390;2023-04-01T01:20:54;97883.97;;;8.22
62845;BMP280;48929;47.910;20.390;2023-04-01T01:27:01;97874.03;;;8.07
62845;BMP280;48929;47.910;20.390;2023-04-01T01:30:00;97880.34;;;8.01
62845;BMP280;48929;47.910;20.390;2023-04-01T01:35:38;97882.19;;;7.87
62845;BMP280;48929;47.910;20.390;2023-04-01T01:38:11;97882.94;;;7.87
62845;BMP280;48929;47.910;20.390;2023-04-01T01:40:43;97879.22;;;7.93
62845;BMP280;48929;47.910;20.390;2023-04-01T01:43:16;97882.13;;;8.00
62845;BMP280;48929;47.910;20.390;2023-04-01T01:45:49;97873.00;;;8.08
62845;BMP280;48929;47.910;20.390;2023-04-01T01:48:19;97875.91;;;8.15
62845;BMP280;48929;47.910;20.390;2023-04-01T01:50:49;97871.88;;;8.23
62845;BMP280;48929;47.910;20.390;2023-04-01T01:53:18;97866.28;;;8.21
62845;BMP280;48929;47.910;20.390;2023-04-01T01:55:47;97867.94;;;8.17
62845;BMP280;48929;47.910;20.390;2023-04-01T01:58:18;97864.25;;;8.09
62845;BMP280;48929;47.910;20.390;2023-04-01T02:00:50;97858.78;;;8.02
62845;BMP280;48929;47.910;20.390;2023-04-01T02:03:20;97865.84;;;7.96
62845;BMP280;48929;47.910;20.390;2023-04-01T02:05:53;97862.59;;;7.91
62845;BMP280;48929;47.910;20.390;2023-04-01T02:08:26;97864.88;;;7.92
62845;BMP280;48929;47.910;20.390;2023-04-01T02:11:01;97866.59;;;7.97
62845;BMP280;48929;47.910;20.390;2023-04-01T02:13:35;97866.75;;;8.00
62845;BMP280;48929;47.910;20.390;2023-04-01T02:16:08;97864.50;;;7.99
62845;BMP280;48929;47.910;20.390;2023-04-01T02:18:44;97859.94;;;7.96
62845;BMP280;48929;47.910;20.390;2023-04-01T02:21:16;97859.94;;;7.96
62845;BMP280;48929;47.910;20.390;2023-04-01T02:23:51;97866.59;;;7.97
62845;BMP280;48929;47.910;20.390;2023-04-01T02:26:35;97857.19;;;7.92
62845;BMP280;48929;47.910;20.390;2023-04-01T02:29:08;97862.88;;;7.89
62845;BMP280;48929;47.910;20.390;2023-04-01T02:31:37;97861.19;;;7.85
62845;BMP280;48929;47.910;20.390;2023-04-01T02:34:07;97864.16;;;7.78
62845;BMP280;48929;47.910;20.390;2023-04-01T02:36:37;97871.22;;;7.73
62845;BMP280;48929;47.910;20.390;2023-04-01T02:39:07;97867.91;;;7.72
62845;BMP280;48929;47.910;20.390;2023-04-01T02:41:41;97870.53;;;7.67
62845;BMP280;48929;47.910;20.390;2023-04-01T02:44:10;97861.81;;;7.68
62845;BMP280;48929;47.910;20.390;2023-04-01T02:46:43;97867.06;;;7.63
62845;BMP280;48929;47.910;20.390;2023-04-01T02:49:12;97864.69;;;7.53
62845;BMP280;48929;47.910;20.390;2023-04-01T02:51:42;97868.97;;;7.44
62845;BMP280;48929;47.910;20.390;2023-04-01T02:54:11;97861.75;;;7.32
62845;BMP280;48929;47.910;20.390;2023-04-01T02:56:39;97869.38;;;7.23
62845;BMP280;48929;47.910;20.390;2023-04-01T02:59:08;97870.88;;;7.11
62845;BMP280;48929;47.910;20.390;2023-04-01T03:01:38;97866.69;;;7.01
62845;BMP280;48929;47.910;20.390;2023-04-01T03:04:07;97865.66;;;6.89
62845;BMP280;48929;47.910;20.390;2023-04-01T03:06:36;97857.09;;;6.79
62845;BMP280;48929;47.910;20.390;2023-04-01T03:09:07;97863.66;;;6.72
62845;BMP280;48929;47.910;20.390;2023-04-01T03:11:49;97863.81;;;6.62
62845;BMP280;48929;47.910;20.390;2023-04-01T03:14:18;97854.22;;;6.54
62845;BMP280;48929;47.910;20.390;2023-04-01T03:16:46;97862.53;;;6.45
62845;BMP280;48929;47.910;20.390;2023-04-01T03:19:18;97850.13;;;6.39
62845;BMP280;48929;47.910;20.390;2023-04-01T03:21:47;97850.44;;;6.32
62845;BMP280;48929;47.910;20.390;2023-04-01T03:24:19;97846.94;;;6.28
62845;BMP280;48929;47.910;20.390;2023-04-01T03:26:48;97846.72;;;6.25
62845;BMP280;48929;47.910;20.390;2023-04-01T03:29:17;97829.47;;;6.17
62845;BMP280;48929;47.910;20.390;2023-04-01T03:31:45;97836.75;;;6.09
62845;BMP280;48929;47.910;20.390;2023-04-01T03:34:14;97843.53;;;6.00
62845;BMP280;48929;47.910;20.390;2023-04-01T03:36:43;97842.84;;;5.95
62845;BMP280;48929;47.910;20.390;2023-04-01T03:39:12;97840.84;;;5.92
62845;BMP280;48929;47.910;20.390;2023-04-01T03:41:42;97842.72;;;5.86
62845;BMP280;48929;47.910;20.390;2023-04-01T03:44:12;97851.19;;;5.82
62845;BMP280;48929;47.910;20.390;2023-04-01T03:46:40;97849.72;;;5.76
62845;BMP280;48929;47.910;20.390;2023-04-01T03:49:10;97842.16;;;5.70
62845;BMP280;48929;47.910;20.390;2023-04-01T03:51:40;97841.44;;;5.65
62845;BMP280;48929;47.910;20.390;2023-04-01T03:54:09;97849.16;;;5.60
62845;BMP280;48929;47.910;20.390;2023-04-01T03:56:38;97841.84;;;5.53
62845;BMP280;48929;47.910;20.390;2023-04-01T03:59:09;97849.28;;;5.50
62845;BMP280;48929;47.910;20.390;2023-04-01T04:01:37;97848.59;;;5.44
62845;BMP280;48929;47.910;20.390;2023-04-01T04:04:07;97853.78;;;5.39
62845;BMP280;48929;47.910;20.390;2023-04-01T04:06:36;97846.41;;;5.32
62845;BMP280;48929;47.910;20.390;2023-04-01T04:09:06;97848.56;;;5.25
62845;BMP280;48929;47.910;20.390;2023-04-01T04:11:35;97848.13;;;5.18
62845;BMP280;48929;47.910;20.390;2023-04-01T04:14:04;97860.94;;;5.13
62845;BMP280;48929;47.910;20.390;2023-04-01T04:16:36;97855.59;;;5.10
62845;BMP280;48929;47.910;20.390;2023-04-01T04:19:05;97860.69;;;5.10
62845;BMP280;48929;47.910;20.390;2023-04-01T04:21:34;97866.88;;;5.09
62845;BMP280;48929;47.910;20.390;2023-04-01T04:24:03;97859.72;;;5.06
62845;BMP280;48929;47.910;20.390;2023-04-01T04:26:32;97862.06;;;5.02
62845;BMP280;48929;47.910;20.390;2023-04-01T04:29:02;97863.09;;;5.01
62845;BMP280;48929;47.910;20.390;2023-04-01T04:31:30;97869.22;;;5.00
62845;BMP280;48929;47.910;20.390;2023-04-01T04:34:03;97868.44;;;5.00
62845;BMP280;48929;47.910;20.390;2023-04-01T04:36:32;97865.13;;;4.99
62845;BMP280;48929;47.910;20.390;2023-04-01T04:39:01;97866.66;;;5.00
62845;BMP280;48929;47.910;20.390;2023-04-01T04:41:30;97868.44;;;5.00
62845;BMP280;48929;47.910;20.390;2023-04-01T04:44:02;97864.91;;;4.95
62845;BMP280;48929;47.910;20.390;2023-04-01T04:46:31;97871.00;;;5.00
62845;BMP280;48929;47.910;20.390;2023-04-01T04:49:03;97871.25;;;5.03
62845;BMP280;48929;47.910;20.390;2023-04-01T04:51:31;97883.66;;;5.10
62845;BMP280;48929;47.910;20.390;2023-04-01T04:54:05;97883.38;;;5.16
62845;BMP280;48929;47.910;20.390;2023-04-01T04:56:34;97875.59;;;5.26
62845;BMP280;48929;47.910;20.390;2023-04-01T04:59:03;97880.06;;;5.40
62845;BMP280;48929;47.910;20.390;2023-04-01T05:01:31;97879.44;;;5.48
62845;BMP280;48929;47.910;20.390;2023-04-01T05:04:00;97876.84;;;5.53
62845;BMP280;48929;47.910;20.390;2023-04-01T05:06:31;97883.22;;;5.55
62845;BMP280;48929;47.910;20.390;2023-04-01T05:09:00;97868.06;;;5.59
62845;BMP280;48929;47.910;20.390;2023-04-01T05:11:29;97878.78;;;5.61
62845;BMP280;48929;47.910;20.390;2023-04-01T05:13:57;97886.41;;;5.66
62845;BMP280;48929;47.910;20.390;2023-04-01T05:16:26;97874.03;;;5.73
62845;BMP280;48929;47.910;20.390;2023-04-01T05:18:55;97877.50;;;5.82
62845;BMP280;48929;47.910;20.390;2023-04-01T05:21:25;97867.06;;;5.97
62845;BMP280;48929;47.910;20.390;2023-04-01T05:23:55;97869.72;;;6.11
62845;BMP280;48929;47.910;20.390;2023-04-01T05:26:24;97869.84;;;6.20
62845;BMP280;48929;47.910;20.390;2023-04-01T05:28:53;97866.56;;;6.33
62845;BMP280;48929;47.910;20.390;2023-04-01T05:31:22;97876.66;;;6.43
62845;BMP280;48929;47.910;20.390;2023-04-01T05:33:52;97861.69;;;6.50
62845;BMP280;48929;47.910;20.390;2023-04-01T05:36:21;97860.28;;;6.58
62845;BMP280;48929;47.910;20.390;2023-04-01T05:38:50;97850.47;;;6.65
62845;BMP280;48929;47.910;20.390;2023-04-01T05:41:23;97859.47;;;6.76
62845;BMP280;48929;47.910;20.390;2023-04-01T05:43:52;97862.63;;;6.87
62845;BMP280;48929;47.910;20.390;2023-04-01T05:46:21;97861.13;;;6.99
62845;BMP280;48929;47.910;20.390;2023-04-01T05:48:51;97858.34;;;7.09
62845;BMP280;48929;47.910;20.390;2023-04-01T05:51:20;97860.44;;;7.21
62845;BMP280;48929;47.910;20.390;2023-04-01T05:53:49;97856.94;;;7.31
62845;BMP280;48929;47.910;20.390;2023-04-01T05:56:17;97860.84;;;7.42
62845;BMP280;48929;47.910;20.390;2023-04-01T05:58:51;97859.69;;;7.48
62845;BMP280;48929;47.910;20.390;2023-04-01T06:01:20;97862.22;;;7.61
62845;BMP280;48929;47.910;20.390;2023-04-01T06:03:50;97862.69;;;7.77
62845;BMP280;48929;47.910;20.390;2023-04-01T06:06:23;97864.69;;;7.89
62845;BMP280;48929;47.910;20.390;2023-04-01T06:08:53;97875.69;;;8.03
62845;BMP280;48929;47.910;20.390;2023-04-01T06:11:30;97862.22;;;8.20
62845;BMP280;48929;47.910;20.390;2023-04-01T06:14:19;97869.53;;;8.35
62845;BMP280;48929;47.910;20.390;2023-04-01T06:17:03;97857.69;;;8.48
62845;BMP280;48929;47.910;20.390;2023-04-01T06:19:40;97852.00;;;8.59
62845;BMP280;48929;47.910;20.390;2023-04-01T06:22:31;97856.28;;;8.72
62845;BMP280;48929;47.910;20.390;2023-04-01T06:28:36;97865.34;;;9.01
62845;BMP280;48929;47.910;20.390;2023-04-01T06:31:13;97860.81;;;9.06
62845;BMP280;48929;47.910;20.390;2023-04-01T06:33:55;97862.63;;;9.14
62845;BMP280;48929;47.910;20.390;2023-04-01T06:36:41;97863.13;;;9.25
62845;BMP280;48929;47.910;20.390;2023-04-01T06:39:22;97854.97;;;9.32
62845;BMP280;48929;47.910;20.390;2023-04-01T06:42:14;97855.88;;;9.36
62845;BMP280;48929;47.910;20.390;2023-04-01T06:44:52;97859.97;;;9.45
62845;BMP280;48929;47.910;20.390;2023-04-01T06:47:45;97861.94;;;9.57
62845;BMP280;48929;47.910;20.390;2023-04-01T06:50:22;97856.34;;;9.64
62845;BMP280;48929;47.910;20.390;2023-04-01T06:52:58;97862.84;;;9.70
62845;BMP280;48929;47.910;20.390;2023-04-01T06:55:32;97865.13;;;9.80
62845;BMP280;48929;47.910;20.390;2023-04-01T06:58:09;97862.69;;;9.83
62845;BMP280;48929;47.910;20.390;2023-04-01T07:00:40;97868.75;;;9.96
62845;BMP280;48929;47.910;20.390;2023-04-01T07:03:18;97871.59;;;10.12
62845;BMP280;48929;47.910;20.390;2023-04-01T07:05:49;97870.06;;;10.28
62845;BMP280;48929;47.910;20.390;2023-04-01T07:08:20;97866.97;;;10.43
62845;BMP280;48929;47.910;20.390;2023-04-01T07:10:54;97874.06;;;10.55
62845;BMP280;48929;47.910;20.390;2023-04-01T07:13:28;97873.00;;;10.56
62845;BMP280;48929;47.910;20.390;2023-04-01T07:16:07;97864.50;;;10.64
62845;BMP280;48929;47.910;20.390;2023-04-01T07:18:42;97866.56;;;10.70
62845;BMP280;48929;47.910;20.390;2023-04-01T07:21:22;97873.69;;;10.73
62845;BMP280;48929;47.910;20.390;2023-04-01T07:23:54;97867.31;;;10.79
62845;BMP280;48929;47.910;20.390;2023-04-01T07:26:25;97865.75;;;10.87
62845;BMP280;48929;47.910;20.390;2023-04-01T07:28:54;97868.88;;;10.93
62845;BMP280;48929;47.910;20.390;2023-04-01T07:31:36;97874.19;;;10.96
62845;BMP280;48929;47.910;20.390;2023-04-01T07:34:14;97865.47;;;11.09
62845;BMP280;48929;47.910;20.390;2023-04-01T07:36:48;97866.16;;;11.18
62845;BMP280;48929;47.910;20.390;2023-04-01T07:39:27;97872.91;;;11.32
62845;BMP280;48929;47.910;20.390;2023-04-01T07:42:02;97868.47;;;11.41
62845;BMP280;48929;47.910;20.390;2023-04-01T07:44:40;97880.34;;;11.54
62845;BMP280;48929;47.910;20.390;2023-04-01T07:47:25;97876.19;;;11.61
62845;BMP280;48929;47.910;20.390;2023-04-01T07:50:08;97881.19;;;11.67
62845;BMP280;48929;47.910;20.390;2023-04-01T07:52:46;97886.97;;;11.64
62845;BMP280;48929;47.910;20.390;2023-04-01T07:55:20;97885.75;;;11.61
62845;BMP280;48929;47.910;20.390;2023-04-01T07:57:57;97878.22;;;11.56
62845;BMP280;48929;47.910;20.390;2023-04-01T08:00:34;97882.16;;;11.53
62845;BMP280;48929;47.910;20.390;2023-04-01T08:03:19;97876.25;;;11.53
62845;BMP280;48929;47.910;20.390;2023-04-01T08:05:55;97871.84;;;11.53
62845;BMP280;48929;47.910;20.390;2023-04-01T08:08:32;97871.84;;;11.53
62845;BMP280;48929;47.910;20.390;2023-04-01T08:11:12;97876.09;;;11.58
62845;BMP280;48929;47.910;20.390;2023-04-01T08:13:45;97870.91;;;11.58
62845;BMP280;48929;47.910;20.390;2023-04-01T08:16:21;97867.38;;;11.63
62845;BMP280;48929;47.910;20.390;2023-04-01T08:18:59;97867.19;;;11.68
62845;BMP280;48929;47.910;20.390;2023-04-01T08:21:37;97869.56;;;11.73
62845;BMP280;48929;47.910;20.390;2023-04-01T08:24:14;97862.84;;;11.80
62845;BMP280;48929;47.910;20.390;2023-04-01T08:26:52;97861.38;;;11.91
62845;BMP280;48929;47.910;20.390;2023-04-01T08:29:25;97855.47;;;12.03
62845;BMP280;48929;47.910;20.390;2023-04-01T08:31:57;97851.88;;;12.16
62845;BMP280;48929;47.910;20.390;2023-04-01T08:34:31;97856.59;;;12.26
62845;BMP280;48929;47.910;20.390;2023-04-01T08:37:04;97845.63;;;12.41
62845;BMP280;48929;47.910;20.390;2023-04-01T08:39:37;97832.69;;;12.54
62845;BMP280;48929;47.910;20.390;2023-04-01T08:42:31;97836.16;;;12.70
62845;BMP280;48929;47.910;20.390;2023-04-01T08:45:23;97841.75;;;12.84
62845;BMP280;48929;47.910;20.390;2023-04-01T08:48:20;97838.81;;;12.98
62845;BMP280;48929;47.910;20.390;2023-04-01T08:57:04;97829.66;;;13.28
62845;BMP280;48929;47.910;20.390;2023-04-01T08:59:51;97820.59;;;13.34
62845;BMP280;48929;47.910;20.390;2023-04-01T09:02:35;97821.22;;;13.43
62845;BMP280;48929;47.910;20.390;2023-04-01T09:08:25;97822.41;;;13.61
62845;BMP280;48929;47.910;20.390;2023-04-01T09:11:06;97829.06;;;13.75
62845;BMP280;48929;47.910;20.390;2023-04-01T09:14:07;97829.63;;;13.84
62845;BMP280;48929;47.910;20.390;2023-04-01T09:19:56;97821.13;;;14.14
62845;BMP280;48929;47.910;20.390;2023-04-01T09:22:48;97823.88;;;14.22
62845;BMP280;48929;47.910;20.390;2023-04-01T09:25:34;97822.16;;;14.26
62845;BMP280;48929;47.910;20.390;2023-04-01T09:28:11;97821.59;;;14.36
62845;BMP280;48929;47.910;20.390;2023-04-01T09:31:01;97820.84;;;14.51
62845;BMP280;48929;47.910;20.390;2023-04-01T09:34:19;97816.97;;;14.60
62845;BMP280;48929;47.910;20.390;2023-04-01T09:37:01;97811.84;;;14.64
62845;BMP280;48929;47.910;20.390;2023-04-01T09:39:37;97815.63;;;14.67
62845;BMP280;48929;47.910;20.390;2023-04-01T09:42:21;97805.25;;;14.67
62845;BMP280;48929;47.910;20.390;2023-04-01T09:44:58;97802.13;;;14.77
62845;BMP280;48929;47.910;20.390;2023-04-01T09:47:45;97798.63;;;14.88
62845;BMP280;48929;47.910;20.390;2023-04-01T09:50:33;97798.84;;;14.99
62845;BMP280;48929;47.910;20.390;2023-04-01T09:53:14;97797.00;;;15.19
62845;BMP280;48929;47.910;20.390;2023-04-01T10:01:48;97796.19;;;15.37
62845;BMP280;48929;47.910;20.390;2023-04-01T10:07:56;97801.41;;;15.60
62845;BMP280;48929;47.910;20.390;2023-04-01T10:10:55;97797.91;;;15.72
62845;BMP280;48929;47.910;20.390;2023-04-01T10:14:13;97800.31;;;15.84
62845;BMP280;48929;47.910;20.390;2023-04-01T10:29:22;97765.53;;;16.18
62845;BMP280;48929;47.910;20.390;2023-04-01T10:38:27;97746.50;;;16.70
62845;BMP280;48929;47.910;20.390;2023-04-01T10:41:37;97750.03;;;16.85
62845;BMP280;48929;47.910;20.390;2023-04-01T10:44:50;97752.53;;;17.15
62845;BMP280;48929;47.910;20.390;2023-04-01T10:47:55;97728.81;;;17.23
62845;BMP280;48929;47.910;20.390;2023-04-01T10:50:52;97738.44;;;17.19
62845;BMP280;48929;47.910;20.390;2023-04-01T10:53:37;97745.00;;;17.03
62845;BMP280;48929;47.910;20.390;2023-04-01T10:56:33;97756.03;;;16.93
62845;BMP280;48929;47.910;20.390;2023-04-01T11:02:45;97768.03;;;16.37
62845;BMP280;48929;47.910;20.390;2023-04-01T11:05:49;97765.47;;;16.11
62845;BMP280;48929;47.910;20.390;2023-04-01T11:08:50;97770.00;;;15.91
62845;BMP280;48929;47.910;20.390;2023-04-01T11:12:02;97773.97;;;15.82
62845;BMP280;48929;47.910;20.390;2023-04-01T11:24:12;97774.53;;;15.72
62845;BMP280;48929;47.910;20.390;2023-04-01T11:26:52;97766.44;;;15.77
62845;BMP280;48929;47.910;20.390;2023-04-01T11:29:41;97769.81;;;15.77
62845;BMP280;48929;47.910;20.390;2023-04-01T11:32:34;97751.56;;;15.74
62845;BMP280;48929;47.910;20.390;2023-04-01T11:35:52;97753.28;;;15.66
62845;BMP280;48929;47.910;20.390;2023-04-01T11:38:57;97759.13;;;15.60
62845;BMP280;48929;47.910;20.390;2023-04-01T11:41:37;97758.78;;;15.61
62845;BMP280;48929;47.910;20.390;2023-04-01T11:44:17;97762.53;;;15.64
62845;BMP280;48929;47.910;20.390;2023-04-01T11:47:02;97772.19;;;15.63
62845;BMP280;48929;47.910;20.390;2023-04-01T11:49:42;97766.56;;;15.61
62845;BMP280;48929;47.910;20.390;2023-04-01T11:52:35;97761.84;;;15.67
62845;BMP280;48929;47.910;20.390;2023-04-01T11:55:28;97762.13;;;15.62
62845;BMP280;48929;47.910;20.390;2023-04-01T11:58:26;97768.34;;;15.57
62845;BMP280;48929;47.910;20.390;2023-04-01T12:07:21;97772.91;;;15.18
62845;BMP280;48929;47.910;20.390;2023-04-01T12:09:58;97780.78;;;15.25
62845;BMP280;48929;47.910;20.390;2023-04-01T12:12:36;97783.22;;;15.37
62845;BMP280;48929;47.910;20.390;2023-04-01T12:15:33;97773.03;;;15.48
62845;BMP280;48929;47.910;20.390;2023-04-01T12:18:12;97776.91;;;15.58
62845;BMP280;48929;47.910;20.390;2023-04-01T12:20:49;97769.63;;;15.67
62845;BMP280;48929;47.910;20.390;2023-04-01T12:23:33;97781.75;;;15.82
62845;BMP280;48929;47.910;20.390;2023-04-01T12:26:26;97778.50;;;15.88
62845;BMP280;48929;47.910;20.390;2023-04-01T12:29:19;97776.06;;;15.99
62845;BMP280;48929;47.910;20.390;2023-04-01T12:31:58;97776.19;;;16.06
62845;BMP280;48929;47.910;20.390;2023-04-01T12:35:02;97777.88;;;16.21
62845;BMP280;48929;47.910;20.390;2023-04-01T12:38:04;97769.53;;;16.38
62845;BMP280;48929;47.910;20.390;2023-04-01T12:40:46;97770.78;;;16.48
62845;BMP280;48929;47.910;20.390;2023-04-01T12:43:34;97768.25;;;16.55
62845;BMP280;48929;47.910;20.390;2023-04-01T12:46:16;97762.53;;;16.76
62845;BMP280;48929;47.910;20.390;2023-04-01T12:49:19;97758.59;;;16.89
62845;BMP280;48929;47.910;20.390;2023-04-01T12:52:00;97763.06;;;16.89
62845;BMP280;48929;47.910;20.390;2023-04-01T13:07:24;97753.78;;;16.91
62845;BMP280;48929;47.910;20.390;2023-04-01T13:10:02;97760.09;;;16.90
62845;BMP280;48929;47.910;20.390;2023-04-01T13:13:03;97757.09;;;16.88
62845;BMP280;48929;47.910;20.390;2023-04-01T13:15:41;97760.47;;;16.89
62845;BMP280;48929;47.910;20.390;2023-04-01T13:18:21;97772.84;;;16.99
62845;BMP280;48929;47.910;20.390;2023-04-01T13:21:04;97762.44;;;16.99
62845;BMP280;48929;47.910;20.390;2023-04-01T13:23:43;97763.06;;;16.85
62845;BMP280;48929;47.910;20.390;2023-04-01T13:26:19;97745.41;;;16.71
62845;BMP280;48929;47.910;20.390;2023-04-01T13:28:53;97762.81;;;16.67
62845;BMP280;48929;47.910;20.390;2023-04-01T13:31:42;97764.00;;;16.70
62845;BMP280;48929;47.910;20.390;2023-04-01T13:34:23;97749.47;;;16.69
62845;BMP280;48929;47.910;20.390;2023-04-01T13:37:07;97769.50;;;16.65
62845;BMP280;48929;47.910;20.390;2023-04-01T13:39:48;97757.97;;;16.66
62845;BMP280;48929;47.910;20.390;2023-04-01T13:42:23;97762.38;;;16.62
62845;BMP280;48929;47.910;20.390;2023-04-01T13:44:56;97764.97;;;16.62
62845;BMP280;48929;47.910;20.390;2023-04-01T13:47:50;97753.91;;;16.65
62845;BMP280;48929;47.910;20.390;2023-04-01T13:50:36;97756.13;;;16.66
62845;BMP280;48929;47.910;20.390;2023-04-01T13:53:29;97768.06;;;16.71
62845;BMP280;48929;47.910;20.390;2023-04-01T13:56:08;97759.88;;;16.69
62845;BMP280;48929;47.910;20.390;2023-04-01T13:59:02;97767.72;;;16.72
62845;BMP280;48929;47.910;20.390;2023-04-01T14:01:39;97763.00;;;16.81
62845;BMP280;48929;47.910;20.390;2023-04-01T14:07:20;97758.84;;;17.14
62845;BMP280;48929;47.910;20.390;2023-04-01T14:10:02;97761.81;;;17.16
62845;BMP280;48929;47.910;20.390;2023-04-01T14:12:40;97767.97;;;17.34
62845;BMP280;48929;47.910;20.390;2023-04-01T14:15:27;97757.59;;;17.41
62845;BMP280;48929;47.910;20.390;2023-04-01T14:18:24;97762.63;;;17.20
62845;BMP280;48929;47.910;20.390;2023-04-01T14:21:15;97764.31;;;17.02
62845;BMP280;48929;47.910;20.390;2023-04-01T14:23:55;97763.28;;;17.10
62845;BMP280;48929;47.910;20.390;2023-04-01T14:26:50;97761.81;;;17.16
62845;BMP280;48929;47.910;20.390;2023-04-01T14:29:29;97758.22;;;17.24
62845;BMP280;48929;47.910;20.390;2023-04-01T14:32:06;97757.91;;;17.33
62845;BMP280;48929;47.910;20.390;2023-04-01T14:34:53;97773.56;;;17.36
62845;BMP280;48929;47.910;20.390;2023-04-01T14:37:48;97759.41;;;17.34
62845;BMP280;48929;47.910;20.390;2023-04-01T14:40:40;97758.63;;;17.29
62845;BMP280;48929;47.910;20.390;2023-04-01T14:43:47;97759.28;;;17.19
62845;BMP280;48929;47.910;20.390;2023-04-01T14:49:20;97755.94;;;17.22
62845;BMP280;48929;47.910;20.390;2023-04-01T14:51:50;97764.53;;;17.26
62845;BMP280;48929;47.910;20.390;2023-04-01T14:54:30;97756.56;;;17.05
62845;BMP280;48929;47.910;20.390;2023-04-01T14:57:10;97769.47;;;16.98
62845;BMP280;48929;47.910;20.390;2023-04-01T14:59:49;97764.63;;;16.97
62845;BMP280;48929;47.910;20.390;2023-04-01T15:02:33;97773.25;;;17.01
62845;BMP280;48929;47.910;20.390;2023-04-01T15:05:16;97768.72;;;16.98
62845;BMP280;48929;47.910;20.390;2023-04-01T15:08:13;97774.91;;;16.82
62845;BMP280;48929;47.910;20.390;2023-04-01T15:11:01;97784.19;;;16.80
62845;BMP280;48929;47.910;20.390;2023-04-01T15:13:47;97791.16;;;16.76
62845;BMP280;48929;47.910;20.390;2023-04-01T15:16:24;97779.53;;;16.66
62845;BMP280;48929;47.910;20.390;2023-04-01T15:19:02;97781.34;;;16.62
62845;BMP280;48929;47.910;20.390;2023-04-01T15:21:50;97783.53;;;16.60
62845;BMP280;48929;47.910;20.390;2023-04-01T15:24:22;97789.38;;;16.50
62845;BMP280;48929;47.910;20.390;2023-04-01T15:27:06;97795.53;;;16.38
62845;BMP280;48929;47.910;20.390;2023-04-01T15:29:52;97797.94;;;16.24
62845;BMP280;48929;47.910;20.390;2023-04-01T15:32:40;97793.00;;;16.16
62845;BMP280;48929;47.910;20.390;2023-04-01T15:35:21;97798.88;;;16.13
62845;BMP280;48929;47.910;20.390;2023-04-01T15:37:55;97799.44;;;15.99
62845;BMP280;48929;47.910;20.390;2023-04-01T15:40:28;97802.53;;;15.82
62845;BMP280;48929;47.910;20.390;2023-04-01T15:43:07;97809.66;;;15.66
62845;BMP280;48929;47.910;20.390;2023-04-01T15:45:51;97809.53;;;15.59
62845;BMP280;48929;47.910;20.390;2023-04-01T15:48:38;97826.53;;;15.53
62845;BMP280;48929;47.910;20.390;2023-04-01T15:51:21;97829.75;;;15.46
62845;BMP280;48929;47.910;20.390;2023-04-01T15:57:16;97837.56;;;15.27
62845;BMP280;48929;47.910;20.390;2023-04-01T16:00:09;97836.75;;;15.23
62845;BMP280;48929;47.910;20.390;2023-04-01T16:02:45;97840.00;;;15.20
62845;BMP280;48929;47.910;20.390;2023-04-01T16:05:27;97829.13;;;15.14
62845;BMP280;48929;47.910;20.390;2023-04-01T16:08:11;97838.69;;;15.10
62845;BMP280;48929;47.910;20.390;2023-04-01T16:10:54;97842.31;;;15.05
62845;BMP280;48929;47.910;20.390;2023-04-01T16:13:36;97848.59;;;15.04
62845;BMP280;48929;47.910;20.390;2023-04-01T16:16:16;97841.25;;;15.07
62845;BMP280;48929;47.910;20.390;2023-04-01T16:18:58;97844.88;;;15.02
62845;BMP280;48929;47.910;20.390;2023-04-01T16:21:43;97857.44;;;15.00
62845;BMP280;48929;47.910;20.390;2023-04-01T16:24:23;97859.53;;;14.94
62845;BMP280;48929;47.910;20.390;2023-04-01T16:26:56;97859.44;;;14.91
62845;BMP280;48929;47.910;20.390;2023-04-01T16:29:32;97864.81;;;14.82
62845;BMP280;48929;47.910;20.390;2023-04-01T16:32:17;97879.09;;;14.73
62845;BMP280;48929;47.910;20.390;2023-04-01T16:35:00;97880.75;;;14.65
62845;BMP280;48929;47.910;20.390;2023-04-01T16:37:38;97889.13;;;14.58